sensor_id;sensor_type;location;lat;lon;timestamp;pressure;altitude;pressure_sealevel;temperature;humidity
74327;BME280;62745;51.060;13.786;2023-08-24T00:00:13;100470.53;;;17.46;100.00
74327;BME280;62745;51.060;13.786;2023-08-24T00:02:39;100477.34;;;17.37;100.00
74327;BME280;62745;51.060;13.786;2023-08-24T00:05:04;100484.69;;;17.30;100.00
74327;BME280;62745;51.060;13.786;2023-08-24T00:07:30;100478.25;;;17.31;100.00
74327;BME280;62745;51.060;13.786;2023-08-24T00:09:57;100483.16;;;17.22;100.00
74327;BME280;62745;51.060;13.786;2023-08-24T00:12:22;100476.94;;;17.22;100.00
74327;BME280;62745;51.060;13.786;2023-08-24T00:14:47;100480.91;;;17.19;100.00
74327;BME280;62745;51.060;13.786;2023-08-24T00:17:13;100468.56;;;17.11;100.00
74327;BME280;62745;51.060;13.786;2023-08-24T00:19:38;100485.72;;;17.17;100.00
74327;BME280;62745;51.060;13.786;2023-08-24T00:22:03;100488.44;;;17.17;100.00
74327;BME280;62745;51.060;13.786;2023-08-24T00:24:29;100479.59;;;17.10;100.00
74327;BME280;62745;51.060;13.786;2023-08-24T00:26:54;100494.06;;;17.16;100.00
74327;BME280;62745;51.060;13.786;2023-08-24T00:29:19;100478.75;;;17.09;100.00
74327;BME280;62745;51.060;13.786;2023-08-24T00:31:46;100485.09;;;17.03;100.00
74327;BME280;62745;51.060;13.786;2023-08-24T00:34:12;100483.31;;;16.97;100.00
74327;BME280;62745;51.060;13.786;2023-08-24T00:36:37;100481.63;;;16.96;100.00
74327;BME280;62745;51.060;13.786;2023-08-24T00:39:02;100481.28;;;16.93;100.00
74327;BME280;62745;51.060;13.786;2023-08-24T00:41:28;100488.75;;;17.09;100.00
74327;BME280;62745;51.060;13.786;2023-08-24T00:43:53;100482.34;;;17.22;100.00
74327;BME280;62745;51.060;13.786;2023-08-24T00:46:18;100489.03;;;17.19;100.00
74327;BME280;62745;51.060;13.786;2023-08-24T00:48:44;100483.50;;;17.14;100.00
74327;BME280;62745;51.060;13.786;2023-08-24T00:51:09;100486.03;;;17.09;100.00
74327;BME280;62745;51.060;13.786;2023-08-24T00:53:36;100480.75;;;17.02;100.00
74327;BME280;62745;51.060;13.786;2023-08-24T00:56:03;100484.97;;;17.10;100.00
74327;BME280;62745;51.060;13.786;2023-08-24T00:58:28;100483.03;;;17.17;100.00
74327;BME280;62745;51.060;13.786;2023-08-24T01:00:55;100484.03;;;17.04;100.00
74327;BME280;62745;51.060;13.786;2023-08-24T01:03:24;100487.19;;;17.01;100.00
74327;BME280;62745;51.060;13.786;2023-08-24T01:05:49;100489.16;;;16.94;100.00
74327;BME280;62745;51.060;13.786;2023-08-24T01:08:15;100485.50;;;16.89;100.00
74327;BME280;62745;51.060;13.786;2023-08-24T01:10:48;100475.16;;;16.86;100.00
74327;BME280;62745;51.060;13.786;2023-08-24T01:13:18;100479.63;;;16.92;100.00
74327;BME280;62745;51.060;13.786;2023-08-24T01:16:00;100488.19;;;16.89;100.00
74327;BME280;62745;51.060;13.786;2023-08-24T01:18:30;100483.84;;;16.88;100.00
74327;BME280;62745;51.060;13.786;2023-08-24T01:20:56;100463.34;;;16.68;100.00
74327;BME280;62745;51.060;13.786;2023-08-24T01:24:27;100474.72;;;16.70;100.00
74327;BME280;62745;51.060;13.786;2023-08-24T01:26:26;100468.97;;;16.67;100.00
74327;BME280;62745;51.060;13.786;2023-08-24T01:28:52;100467.13;;;16.79;100.00
74327;BME280;62745;51.060;13.786;2023-08-24T01:31:18;100474.78;;;16.82;100.00
74327;BME280;62745;51.060;13.786;2023-08-24T01:33:44;100472.53;;;16.79;100.00
74327;BME280;62745;51.060;13.786;2023-08-24T01:36:12;100464.16;;;16.69;100.00
74327;BME280;62745;51.060;13.786;2023-08-24T01:38:38;100466.88;;;16.69;100.00
74327;BME280;62745;51.060;13.786;2023-08-24T01:41:15;100477.50;;;16.64;100.00
74327;BME280;62745;51.060;13.786;2023-08-24T01:43:45;100470.66;;;16.61;100.00
74327;BME280;62745;51.060;13.786;2023-08-24T01:46:15;100461.69;;;16.49;100.00
74327;BME280;62745;51.060;13.786;2023-08-24T01:48:42;100469.47;;;16.57;100.00
74327;BME280;62745;51.060;13.786;2023-08-24T01:51:08;100468.03;;;16.54;100.00
74327;BME280;62745;51.060;13.786;2023-08-24T01:53:35;100466.69;;;16.64;100.00
74327;BME280;62745;51.060;13.786;2023-08-24T01:56:01;100464.44;;;16.61;100.00
74327;BME280;62745;51.060;13.786;2023-08-24T01:58:27;100461.59;;;16.55;100.00
74327;BME280;62745;51.060;13.786;2023-08-24T02:00:52;100445.09;;;16.45;100.00
74327;BME280;62745;51.060;13.786;2023-08-24T02:03:17;100466.84;;;16.50;100.00
74327;BME280;62745;51.060;13.786;2023-08-24T02:05:43;100464.38;;;16.49;100.00
74327;BME280;62745;51.060;13.786;2023-08-24T02:08:08;100476.88;;;16.43;100.00
74327;BME280;62745;51.060;13.786;2023-08-24T02:10:33;100473.53;;;16.30;100.00
74327;BME280;62745;51.060;13.786;2023-08-24T02:12:58;100478.50;;;16.26;100.00
74327;BME280;62745;51.060;13.786;2023-08-24T02:15:24;100468.78;;;16.25;100.00
74327;BME280;62745;51.060;13.786;2023-08-24T02:17:49;100461.81;;;16.17;100.00
74327;BME280;62745;51.060;13.786;2023-08-24T02:20:14;100457.13;;;16.13;100.00
74327;BME280;62745;51.060;13.786;2023-08-24T02:22:40;100454.63;;;16.11;100.00
74327;BME280;62745;51.060;13.786;2023-08-24T02:25:06;100460.00;;;16.11;100.00
74327;BME280;62745;51.060;13.786;2023-08-24T02:27:32;100452.91;;;16.17;100.00
74327;BME280;62745;51.060;13.786;2023-08-24T02:29:58;100469.69;;;16.37;100.00
74327;BME280;62745;51.060;13.786;2023-08-24T02:32:23;100458.69;;;16.39;100.00
74327;BME280;62745;51.060;13.786;2023-08-24T02:34:48;100458.22;;;16.42;100.00
74327;BME280;62745;51.060;13.786;2023-08-24T02:37:13;100448.63;;;16.28;100.00
74327;BME280;62745;51.060;13.786;2023-08-24T02:39:39;100449.53;;;16.21;100.00
74327;BME280;62745;51.060;13.786;2023-08-24T02:42:04;100452.47;;;16.20;100.00
74327;BME280;62745;51.060;13.786;2023-08-24T02:44:30;100462.44;;;16.19;100.00
74327;BME280;62745;51.060;13.786;2023-08-24T02:46:58;100458.75;;;16.14;100.00
74327;BME280;62745;51.060;13.786;2023-08-24T02:49:23;100457.16;;;16.06;100.00
74327;BME280;62745;51.060;13.786;2023-08-24T02:51:49;100463.41;;;16.25;100.00
74327;BME280;62745;51.060;13.786;2023-08-24T02:54:14;100461.53;;;16.25;100.00
74327;BME280;62745;51.060;13.786;2023-08-24T02:56:39;100457.25;;;16.18;100.00
74327;BME280;62745;51.060;13.786;2023-08-24T02:59:04;100464.16;;;16.14;100.00
74327;BME280;62745;51.060;13.786;2023-08-24T03:01:30;100447.66;;;16.04;100.00
74327;BME280;62745;51.060;13.786;2023-08-24T03:03:55;100454.09;;;16.03;100.00
74327;BME280;62745;51.060;13.786;2023-08-24T03:06:21;100454.91;;;16.03;100.00
74327;BME280;62745;51.060;13.786;2023-08-24T03:08:46;100456.34;;;16.06;100.00
74327;BME280;62745;51.060;13.786;2023-08-24T03:11:11;100452.59;;;16.07;100.00
74327;BME280;62745;51.060;13.786;2023-08-24T03:13:37;100452.69;;;16.00;100.00
74327;BME280;62745;51.060;13.786;2023-08-24T03:16:04;100453.72;;;15.99;100.00
74327;BME280;62745;51.060;13.786;2023-08-24T03:18:30;100449.09;;;16.06;100.00
74327;BME280;62745;51.060;13.786;2023-08-24T03:20:55;100457.03;;;16.19;100.00
74327;BME280;62745;51.060;13.786;2023-08-24T03:23:20;100464.53;;;16.17;100.00
74327;BME280;62745;51.060;13.786;2023-08-24T03:25:46;100461.81;;;16.17;100.00
74327;BME280;62745;51.060;13.786;2023-08-24T03:28:11;100449.16;;;16.00;100.00
74327;BME280;62745;51.060;13.786;2023-08-24T03:30:38;100450.22;;;15.99;100.00
74327;BME280;62745;51.060;13.786;2023-08-24T03:33:05;100444.50;;;15.88;100.00
74327;BME280;62745;51.060;13.786;2023-08-24T03:35:31;100448.09;;;15.82;100.00
74327;BME280;62745;51.060;13.786;2023-08-24T03:37:57;100455.72;;;15.85;100.00
74327;BME280;62745;51.060;13.786;2023-08-24T03:40:22;100458.19;;;15.87;100.00
74327;BME280;62745;51.060;13.786;2023-08-24T03:42:47;100450.84;;;15.94;100.00
74327;BME280;62745;51.060;13.786;2023-08-24T03:45:12;100457.72;;;16.15;100.00
74327;BME280;62745;51.060;13.786;2023-08-24T03:47:38;100436.13;;;15.97;100.00
74327;BME280;62745;51.060;13.786;2023-08-24T03:50:03;100448.38;;;15.92;100.00
74327;BME280;62745;51.060;13.786;2023-08-24T03:52:28;100453.53;;;15.94;100.00
74327;BME280;62745;51.060;13.786;2023-08-24T03:54:54;100454.78;;;15.98;100.00
74327;BME280;62745;51.060;13.786;2023-08-24T03:57:19;100459.88;;;16.06;100.00
74327;BME280;62745;51.060;13.786;2023-08-24T03:59:44;100450.25;;;15.92;100.00
74327;BME280;62745;51.060;13.786;2023-08-24T04:02:10;100462.16;;;15.84;100.00
74327;BME280;62745;51.060;13.786;2023-08-24T04:04:35;100462.00;;;15.79;100.00
74327;BME280;62745;51.060;13.786;2023-08-24T04:07:00;100458.31;;;15.74;100.00
74327;BME280;62745;51.060;13.786;2023-08-24T04:09:27;100450.50;;;15.66;100.00
74327;BME280;62745;51.060;13.786;2023-08-24T04:11:52;100460.84;;;15.69;100.00
74327;BME280;62745;51.060;13.786;2023-08-24T04:14:17;100450.06;;;15.69;100.00
74327;BME280;62745;51.060;13.786;2023-08-24T04:16:43;100439.78;;;15.59;100.00
74327;BME280;62745;51.060;13.786;2023-08-24T04:19:08;100444.94;;;15.60;100.00
74327;BME280;62745;51.060;13.786;2023-08-24T04:21:33;100446.41;;;15.56;100.00
74327;BME280;62745;51.060;13.786;2023-08-24T04:23:59;100433.69;;;15.45;100.00
74327;BME280;62745;51.060;13.786;2023-08-24T04:26:24;100431.63;;;15.41;100.00
74327;BME280;62745;51.060;13.786;2023-08-24T04:28:50;100448.16;;;15.44;100.00
74327;BME280;62745;51.060;13.786;2023-08-24T04:31:15;100448.03;;;15.64;100.00
74327;BME280;62745;51.060;13.786;2023-08-24T04:33:40;100448.34;;;15.74;100.00
74327;BME280;62745;51.060;13.786;2023-08-24T04:36:06;100449.63;;;15.97;100.00
74327;BME280;62745;51.060;13.786;2023-08-24T04:38:31;100445.25;;;15.95;100.00
74327;BME280;62745;51.060;13.786;2023-08-24T04:40:56;100451.41;;;16.03;100.00
74327;BME280;62745;51.060;13.786;2023-08-24T04:43:23;100459.59;;;16.14;100.00
74327;BME280;62745;51.060;13.786;2023-08-24T04:45:50;100453.97;;;16.16;100.00
74327;BME280;62745;51.060;13.786;2023-08-24T04:48:20;100453.44;;;16.25;100.00
74327;BME280;62745;51.060;13.786;2023-08-24T04:50:46;100461.28;;;16.27;100.00
74327;BME280;62745;51.060;13.786;2023-08-24T04:53:13;100455.47;;;16.30;100.00
74327;BME280;62745;51.060;13.786;2023-08-24T04:55:40;100457.19;;;16.24;100.00
74327;BME280;62745;51.060;13.786;2023-08-24T04:58:06;100465.34;;;16.36;100.00
74327;BME280;62745;51.060;13.786;2023-08-24T05:00:31;100455.31;;;16.25;100.00
74327;BME280;62745;51.060;13.786;2023-08-24T05:02:58;100456.13;;;16.25;100.00
74327;BME280;62745;51.060;13.786;2023-08-24T05:05:23;100469.69;;;16.37;100.00
74327;BME280;62745;51.060;13.786;2023-08-24T05:07:49;100458.41;;;16.47;100.00
74327;BME280;62745;51.060;13.786;2023-08-24T05:10:14;100455.84;;;16.52;100.00
74327;BME280;62745;51.060;13.786;2023-08-24T05:12:39;100467.22;;;16.54;100.00
74327;BME280;62745;51.060;13.786;2023-08-24T05:15:05;100457.25;;;16.54;100.00
74327;BME280;62745;51.060;13.786;2023-08-24T05:17:31;100467.72;;;16.63;100.00
74327;BME280;62745;51.060;13.786;2023-08-24T05:19:59;100458.81;;;16.62;100.00
74327;BME280;62745;51.060;13.786;2023-08-24T05:22:25;100456.34;;;16.61;100.00
74327;BME280;62745;51.060;13.786;2023-08-24T05:24:50;100456.13;;;16.80;100.00
74327;BME280;62745;51.060;13.786;2023-08-24T05:27:16;100463.41;;;16.80;100.00
74327;BME280;62745;51.060;13.786;2023-08-24T05:29:42;100451.41;;;16.76;100.00
74327;BME280;62745;51.060;13.786;2023-08-24T05:32:07;100467.94;;;16.98;100.00
74327;BME280;62745;51.060;13.786;2023-08-24T05:34:32;100467.13;;;16.97;100.00
74327;BME280;62745;51.060;13.786;2023-08-24T05:36:57;100457.63;;;17.06;100.00
74327;BME280;62745;51.060;13.786;2023-08-24T05:39:23;100459.31;;;17.19;100.00
74327;BME280;62745;51.060;13.786;2023-08-24T05:41:51;100450.88;;;17.16;100.00
74327;BME280;62745;51.060;13.786;2023-08-24T05:44:18;100456.75;;;17.24;100.00
74327;BME280;62745;51.060;13.786;2023-08-24T05:46:44;100453.34;;;17.29;100.00
74327;BME280;62745;51.060;13.786;2023-08-24T05:49:09;100449.75;;;17.35;100.00
74327;BME280;62745;51.060;13.786;2023-08-24T05:51:35;100441.06;;;17.44;100.00
74327;BME280;62745;51.060;13.786;2023-08-24T05:54:00;100441.78;;;17.52;100.00
74327;BME280;62745;51.060;13.786;2023-08-24T05:56:25;100446.16;;;17.76;100.00
74327;BME280;62745;51.060;13.786;2023-08-24T05:58:51;100437.00;;;17.77;100.00
74327;BME280;62745;51.060;13.786;2023-08-24T06:01:16;100441.34;;;17.90;100.00
74327;BME280;62745;51.060;13.786;2023-08-24T06:03:41;100452.28;;;18.07;100.00
74327;BME280;62745;51.060;13.786;2023-08-24T06:06:07;100456.97;;;18.34;100.00
74327;BME280;62745;51.060;13.786;2023-08-24T06:08:34;100456.22;;;18.39;100.00
74327;BME280;62745;51.060;13.786;2023-08-24T06:10:59;100447.72;;;18.47;100.00
74327;BME280;62745;51.060;13.786;2023-08-24T06:13:25;100440.69;;;18.46;100.00
74327;BME280;62745;51.060;13.786;2023-08-24T06:15:50;100438.88;;;18.75;100.00
74327;BME280;62745;51.060;13.786;2023-08-24T06:18:15;100444.66;;;18.96;100.00
74327;BME280;62745;51.060;13.786;2023-08-24T06:20:41;100443.97;;;19.17;100.00
74327;BME280;62745;51.060;13.786;2023-08-24T06:23:06;100442.09;;;19.17;100.00
74327;BME280;62745;51.060;13.786;2023-08-24T06:25:32;100436.69;;;19.34;100.00
74327;BME280;62745;51.060;13.786;2023-08-24T06:27:58;100432.22;;;19.57;100.00
74327;BME280;62745;51.060;13.786;2023-08-24T06:30:24;100435.25;;;19.60;100.00
74327;BME280;62745;51.060;13.786;2023-08-24T06:32:49;100432.13;;;19.68;100.00
74327;BME280;62745;51.060;13.786;2023-08-24T06:35:15;100438.34;;;19.86;100.00
74327;BME280;62745;51.060;13.786;2023-08-24T06:37:40;100432.94;;;19.86;100.00
74327;BME280;62745;51.060;13.786;2023-08-24T06:40:06;100441.47;;;19.77;97.48
74327;BME280;62745;51.060;13.786;2023-08-24T06:42:31;100446.91;;;19.77;96.31
74327;BME280;62745;51.060;13.786;2023-08-24T06:44:57;100428.75;;;19.78;93.60
74327;BME280;62745;51.060;13.786;2023-08-24T06:47:22;100438.50;;;19.79;93.53
74327;BME280;62745;51.060;13.786;2023-08-24T06:49:47;100428.91;;;19.71;93.39
74327;BME280;62745;51.060;13.786;2023-08-24T06:52:13;100419.81;;;19.61;93.72
74327;BME280;62745;51.060;13.786;2023-08-24T06:54:38;100436.72;;;19.68;93.42
74327;BME280;62745;51.060;13.786;2023-08-24T06:57:04;100435.22;;;19.77;93.97
74327;BME280;62745;51.060;13.786;2023-08-24T06:59:29;100437.69;;;19.78;93.18
74327;BME280;62745;51.060;13.786;2023-08-24T07:01:54;100436.72;;;19.85;93.34
74327;BME280;62745;51.060;13.786;2023-08-24T07:04:20;100429.47;;;19.90;93.54
74327;BME280;62745;51.060;13.786;2023-08-24T07:06:45;100442.13;;;20.01;91.93
74327;BME280;62745;51.060;13.786;2023-08-24T07:09:11;100418.41;;;20.13;91.86
74327;BME280;62745;51.060;13.786;2023-08-24T07:11:36;100427.13;;;20.16;90.32
74327;BME280;62745;51.060;13.786;2023-08-24T07:14:01;100442.34;;;20.38;92.02
74327;BME280;62745;51.060;13.786;2023-08-24T07:16:27;100439.84;;;20.54;90.99
74327;BME280;62745;51.060;13.786;2023-08-24T07:18:52;100437.69;;;20.56;88.29
74327;BME280;62745;51.060;13.786;2023-08-24T07:21:18;100436.53;;;20.73;85.72
74327;BME280;62745;51.060;13.786;2023-08-24T07:23:43;100408.34;;;20.80;87.15
74327;BME280;62745;51.060;13.786;2023-08-24T07:26:09;100422.88;;;20.90;86.98
74327;BME280;62745;51.060;13.786;2023-08-24T07:28:34;100418.19;;;21.13;85.83
74327;BME280;62745;51.060;13.786;2023-08-24T07:31:09;100398.53;;;21.27;89.88
74327;BME280;62745;51.060;13.786;2023-08-24T07:33:36;100428.38;;;21.54;89.32
74327;BME280;62745;51.060;13.786;2023-08-24T07:36:02;100422.41;;;21.57;90.04
74327;BME280;62745;51.060;13.786;2023-08-24T07:38:29;100415.16;;;21.68;88.05
74327;BME280;62745;51.060;13.786;2023-08-24T07:40:54;100413.66;;;21.87;87.34
74327;BME280;62745;51.060;13.786;2023-08-24T07:43:20;100396.81;;;21.96;87.42
74327;BME280;62745;51.060;13.786;2023-08-24T07:45:46;100414.69;;;22.18;86.56
74327;BME280;62745;51.060;13.786;2023-08-24T07:48:11;100417.44;;;22.34;82.51
74327;BME280;62745;51.060;13.786;2023-08-24T07:50:37;100419.94;;;22.45;83.06
74327;BME280;62745;51.060;13.786;2023-08-24T07:53:02;100403.63;;;22.50;82.52
74327;BME280;62745;51.060;13.786;2023-08-24T07:55:27;100408.06;;;22.72;82.17
74327;BME280;62745;51.060;13.786;2023-08-24T07:57:53;100403.50;;;22.88;81.65
74327;BME280;62745;51.060;13.786;2023-08-24T08:00:18;100413.06;;;23.16;80.33
74327;BME280;62745;51.060;13.786;2023-08-24T08:02:43;100405.44;;;23.38;80.04
74327;BME280;62745;51.060;13.786;2023-08-24T08:05:08;100413.63;;;23.63;81.09
74327;BME280;62745;51.060;13.786;2023-08-24T08:07:35;100409.25;;;23.78;79.58
74327;BME280;62745;51.060;13.786;2023-08-24T08:10:00;100392.31;;;23.81;78.11
74327;BME280;62745;51.060;13.786;2023-08-24T08:12:26;100401.03;;;23.93;77.57
74327;BME280;62745;51.060;13.786;2023-08-24T08:14:51;100411.03;;;24.18;77.37
74327;BME280;62745;51.060;13.786;2023-08-24T08:17:16;100412.13;;;24.27;76.74
74327;BME280;62745;51.060;13.786;2023-08-24T08:19:41;100413.75;;;24.38;75.86
74327;BME280;62745;51.060;13.786;2023-08-24T08:22:07;100406.31;;;24.49;74.04
74327;BME280;62745;51.060;13.786;2023-08-24T08:24:33;100413.94;;;24.52;74.56
74327;BME280;62745;51.060;13.786;2023-08-24T08:26:58;100390.75;;;24.49;73.58
74327;BME280;62745;51.060;13.786;2023-08-24T08:29:23;100404.03;;;24.71;71.93
74327;BME280;62745;51.060;13.786;2023-08-24T08:31:49;100407.44;;;24.92;71.52
74327;BME280;62745;51.060;13.786;2023-08-24T08:34:14;100405.75;;;25.06;70.95
74327;BME280;62745;51.060;13.786;2023-08-24T08:36:40;100408.59;;;25.25;68.87
74327;BME280;62745;51.060;13.786;2023-08-24T08:39:05;100398.06;;;25.42;68.26
74327;BME280;62745;51.060;13.786;2023-08-24T08:41:33;100403.69;;;25.56;68.53
74327;BME280;62745;51.060;13.786;2023-08-24T08:44:05;100400.78;;;25.76;67.88
74327;BME280;62745;51.060;13.786;2023-08-24T08:46:32;100375.66;;;25.69;67.18
74327;BME280;62745;51.060;13.786;2023-08-24T08:48:59;100398.69;;;25.92;65.64
74327;BME280;62745;51.060;13.786;2023-08-24T08:51:25;100390.31;;;26.07;63.35
74327;BME280;62745;51.060;13.786;2023-08-24T08:53:50;100385.19;;;26.25;63.97
74327;BME280;62745;51.060;13.786;2023-08-24T08:56:16;100384.50;;;26.33;59.25
74327;BME280;62745;51.060;13.786;2023-08-24T08:58:42;100386.50;;;26.51;58.70
74327;BME280;62745;51.060;13.786;2023-08-24T09:01:08;100375.53;;;26.51;54.22
74327;BME280;62745;51.060;13.786;2023-08-24T09:03:34;100381.91;;;26.47;55.18
74327;BME280;62745;51.060;13.786;2023-08-24T09:06:00;100379.09;;;26.71;53.66
74327;BME280;62745;51.060;13.786;2023-08-24T09:08:26;100375.16;;;26.95;53.97
74327;BME280;62745;51.060;13.786;2023-08-24T09:11:27;100370.88;;;26.89;52.26
74327;BME280;62745;51.060;13.786;2023-08-24T09:13:53;100350.94;;;27.03;53.52
74327;BME280;62745;51.060;13.786;2023-08-24T09:16:18;100347.34;;;27.21;51.63
74327;BME280;62745;51.060;13.786;2023-08-24T09:18:46;100348.72;;;27.37;48.29
74327;BME280;62745;51.060;13.786;2023-08-24T09:21:13;100337.97;;;27.54;49.15
74327;BME280;62745;51.060;13.786;2023-08-24T09:23:52;100345.00;;;27.61;49.72
74327;BME280;62745;51.060;13.786;2023-08-24T09:26:34;100340.66;;;27.87;49.38
74327;BME280;62745;51.060;13.786;2023-08-24T09:29:05;100333.75;;;28.03;50.55
74327;BME280;62745;51.060;13.786;2023-08-24T09:31:36;100327.22;;;28.13;47.68
74327;BME280;62745;51.060;13.786;2023-08-24T09:34:02;100329.97;;;28.13;45.83
74327;BME280;62745;51.060;13.786;2023-08-24T09:36:31;100325.50;;;28.17;47.95
74327;BME280;62745;51.060;13.786;2023-08-24T09:38:58;100326.94;;;28.28;47.92
74327;BME280;62745;51.060;13.786;2023-08-24T09:41:24;100311.34;;;28.24;42.66
74327;BME280;62745;51.060;13.786;2023-08-24T09:44:05;100304.25;;;28.59;42.90
74327;BME280;62745;51.060;13.786;2023-08-24T09:46:30;100314.25;;;28.91;42.36
74327;BME280;62745;51.060;13.786;2023-08-24T09:48:56;100291.97;;;29.01;43.38
74327;BME280;62745;51.060;13.786;2023-08-24T09:51:26;100302.84;;;29.37;41.25
74327;BME280;62745;51.060;13.786;2023-08-24T09:53:57;100287.31;;;29.72;41.86
74327;BME280;62745;51.060;13.786;2023-08-24T09:56:28;100292.97;;;29.58;37.30
74327;BME280;62745;51.060;13.786;2023-08-24T09:58:54;100278.88;;;29.69;36.96
74327;BME280;62745;51.060;13.786;2023-08-24T10:01:23;100266.56;;;29.57;39.51
74327;BME280;62745;51.060;13.786;2023-08-24T10:03:51;100256.94;;;30.03;39.95
74327;BME280;62745;51.060;13.786;2023-08-24T10:06:21;100257.97;;;30.24;39.86
74327;BME280;62745;51.060;13.786;2023-08-24T10:08:55;100268.34;;;30.10;38.61
74327;BME280;62745;51.060;13.786;2023-08-24T10:11:25;100268.44;;;29.97;39.88
74327;BME280;62745;51.060;13.786;2023-08-24T10:13:58;100276.44;;;30.15;39.83
74327;BME280;62745;51.060;13.786;2023-08-24T10:16:27;100274.31;;;30.21;40.71
74327;BME280;62745;51.060;13.786;2023-08-24T10:18:53;100266.72;;;30.27;40.39
74327;BME280;62745;51.060;13.786;2023-08-24T10:21:20;100274.34;;;30.30;39.86
74327;BME280;62745;51.060;13.786;2023-08-24T10:23:51;100266.72;;;30.35;38.76
74327;BME280;62745;51.060;13.786;2023-08-24T10:26:17;100272.56;;;30.34;39.79
74327;BME280;62745;51.060;13.786;2023-08-24T10:28:44;100274.84;;;30.32;38.17
74327;BME280;62745;51.060;13.786;2023-08-24T10:31:10;100268.94;;;29.99;37.57
74327;BME280;62745;51.060;13.786;2023-08-24T10:33:36;100267.31;;;29.98;39.26
74327;BME280;62745;51.060;13.786;2023-08-24T10:36:05;100274.19;;;30.43;39.14
74327;BME280;62745;51.060;13.786;2023-08-24T10:38:31;100262.50;;;30.72;37.96
74327;BME280;62745;51.060;13.786;2023-08-24T10:41:03;100263.81;;;30.83;38.14
74327;BME280;62745;51.060;13.786;2023-08-24T10:43:36;100260.41;;;30.78;37.92
74327;BME280;62745;51.060;13.786;2023-08-24T10:46:02;100254.25;;;30.81;36.94
74327;BME280;62745;51.060;13.786;2023-08-24T10:53:45;100245.00;;;30.68;37.67
74327;BME280;62745;51.060;13.786;2023-08-24T10:56:15;100237.44;;;31.03;37.08
74327;BME280;62745;51.060;13.786;2023-08-24T10:58:42;100233.84;;;31.20;36.93
74327;BME280;62745;51.060;13.786;2023-08-24T11:01:14;100221.03;;;31.16;36.79
74327;BME280;62745;51.060;13.786;2023-08-24T11:03:40;100237.34;;;30.91;37.18
74327;BME280;62745;51.060;13.786;2023-08-24T11:06:18;100235.56;;;30.87;37.27
74327;BME280;62745;51.060;13.786;2023-08-24T11:08:44;100233.81;;;30.65;37.91
74327;BME280;62745;51.060;13.786;2023-08-24T11:11:23;100227.63;;;30.50;37.23
74327;BME280;62745;51.060;13.786;2023-08-24T11:14:18;100224.72;;;30.38;39.94
74327;BME280;62745;51.060;13.786;2023-08-24T11:16:47;100227.00;;;30.19;40.06
74327;BME280;62745;51.060;13.786;2023-08-24T11:19:13;100219.06;;;30.17;39.48
74327;BME280;62745;51.060;13.786;2023-08-24T11:21:39;100209.50;;;30.23;39.15
74327;BME280;62745;51.060;13.786;2023-08-24T11:24:05;100210.16;;;30.29;39.45
74327;BME280;62745;51.060;13.786;2023-08-24T11:26:31;100204.94;;;30.62;39.20
74327;BME280;62745;51.060;13.786;2023-08-24T11:28:56;100196.31;;;30.72;37.70
74327;BME280;62745;51.060;13.786;2023-08-24T11:31:26;100189.66;;;30.73;38.29
74327;BME280;62745;51.060;13.786;2023-08-24T11:33:54;100194.69;;;30.71;36.67
74327;BME280;62745;51.060;13.786;2023-08-24T11:36:20;100195.91;;;31.00;35.17
74327;BME280;62745;51.060;13.786;2023-08-24T11:38:46;100191.78;;;31.23;36.87
74327;BME280;62745;51.060;13.786;2023-08-24T11:41:16;100182.84;;;31.56;36.34
74327;BME280;62745;51.060;13.786;2023-08-24T11:43:45;100170.00;;;31.30;34.81
74327;BME280;62745;51.060;13.786;2023-08-24T11:46:12;100162.31;;;31.65;36.04
74327;BME280;62745;51.060;13.786;2023-08-24T11:48:38;100145.06;;;31.18;37.59
74327;BME280;62745;51.060;13.786;2023-08-24T11:51:08;100142.28;;;30.80;37.91
74327;BME280;62745;51.060;13.786;2023-08-24T11:53:45;100126.94;;;31.00;36.94
74327;BME280;62745;51.060;13.786;2023-08-24T11:56:12;100111.97;;;30.71;36.74
74327;BME280;62745;51.060;13.786;2023-08-24T11:58:41;100099.19;;;30.49;36.77
74327;BME280;62745;51.060;13.786;2023-08-24T12:01:11;100100.72;;;30.30;38.10
74327;BME280;62745;51.060;13.786;2023-08-24T12:03:38;100085.34;;;30.11;38.63
74327;BME280;62745;51.060;13.786;2023-08-24T12:06:11;100079.19;;;30.06;37.91
74327;BME280;62745;51.060;13.786;2023-08-24T12:08:45;100088.41;;;30.01;39.74
74327;BME280;62745;51.060;13.786;2023-08-24T12:11:19;100082.72;;;29.89;40.20
74327;BME280;62745;51.060;13.786;2023-08-24T12:13:54;100063.78;;;29.79;41.51
74327;BME280;62745;51.060;13.786;2023-08-24T12:16:21;100077.06;;;29.94;39.94
74327;BME280;62745;51.060;13.786;2023-08-24T12:18:48;100062.94;;;30.21;39.45
74327;BME280;62745;51.060;13.786;2023-08-24T12:21:14;100064.22;;;30.33;38.47
74327;BME280;62745;51.060;13.786;2023-08-24T12:23:39;100068.59;;;30.34;39.51
74327;BME280;62745;51.060;13.786;2023-08-24T12:26:05;100075.38;;;30.36;39.04
74327;BME280;62745;51.060;13.786;2023-08-24T12:28:33;100085.56;;;30.53;40.24
74327;BME280;62745;51.060;13.786;2023-08-24T12:30:58;100091.78;;;30.88;39.27
74327;BME280;62745;51.060;13.786;2023-08-24T12:33:28;100099.97;;;31.05;38.43
74327;BME280;62745;51.060;13.786;2023-08-24T12:35:54;100098.00;;;31.06;39.83
74327;BME280;62745;51.060;13.786;2023-08-24T12:38:21;100109.31;;;30.92;39.73